PWSweather.com
Personal Weather Stations
Station Observations
KMAMEDFI2
Medfield, MA 02052

Medfield, MA 02052

Lat: 42.1900822, Lon: -71.3296889

Elevation: 138

Station Type: Rainwise WS MK-III

http://www.medfieldweather.com

High Low Average
Temperature 12.3°F-10.9°C -4.4°F-20.2°C 2.5°F-16.4°C
Dew Point -0.9°F-18.3°C -8.6°F-22.6°C -3.9°F-19.9°C
Winds 12.7 mph 20.4 kmh Calm Calm 3.0 mph W4.8 kmh W
Wind Gusts 12.7 mph20.4 kmh -- 3.0 mph4.8 kmh
Humidity 92% 46% 77%
Pressure 31.20 in1056.6 mb 30.14 in1020.7 mb -
Precipitation 0.00 in0.0 mm - -
Hour Temp Dew Point Humidity Winds Wind Gusts Pressure Precip Precip Rate Daily Precip Total
12:00 AM -0.3°F-17.9°C -2.3°F-19.1°C 91% Calm Calm -- 31.12 in1053.8 mb - 0.00 in0.0 mm 0.00 in0.0 mm
12:10 AM -0.7°F-18.2°C -2.7°F-19.3°C 91% Calm Calm 1.2 mph1.9 kmh 31.12 in1053.8 mb - 0.00 in0.0 mm 0.00 in0.0 mm
12:20 AM -0.6°F-18.1°C -2.6°F-19.2°C 91% 1.2 mph W1.9 kmh W 1.2 mph1.9 kmh 31.12 in1053.8 mb - 0.00 in0.0 mm 0.00 in0.0 mm
12:30 AM -0.2°F-17.9°C -2.2°F-19.0°C 91% 1.2 mph WSW1.9 kmh WSW 2.3 mph3.7 kmh 31.12 in1053.8 mb - 0.00 in0.0 mm 0.00 in0.0 mm
12:40 AM -0.1°F-17.8°C -2.1°F-18.9°C 91% 2.3 mph W3.7 kmh W 2.3 mph3.7 kmh 31.12 in1053.8 mb - 0.00 in0.0 mm 0.00 in0.0 mm
12:50 AM 0.5°F-17.5°C -1.5°F-18.6°C 91% 2.3 mph NW3.7 kmh NW 2.3 mph3.7 kmh 31.12 in1053.8 mb - 0.00 in0.0 mm 0.00 in0.0 mm
01:00 AM 0.7°F-17.4°C -1.3°F-18.5°C 91% 1.2 mph WSW1.9 kmh WSW 1.2 mph1.9 kmh 31.12 in1053.8 mb - 0.00 in0.0 mm 0.00 in0.0 mm
01:10 AM 1.1°F-17.2°C -0.9°F-18.3°C 91% 8.1 mph SW13.0 kmh SW 9.2 mph14.8 kmh 31.12 in1053.8 mb - 0.00 in0.0 mm 0.00 in0.0 mm
01:20 AM 1.1°F-17.2°C -0.9°F-18.3°C 91% 4.6 mph SW7.4 kmh SW 3.5 mph5.6 kmh 31.12 in1053.8 mb - 0.00 in0.0 mm 0.00 in0.0 mm
01:30 AM 0.8°F-17.3°C -1.2°F-18.4°C 91% 3.5 mph NNW5.6 kmh NNW 2.3 mph3.7 kmh 31.12 in1053.8 mb - 0.00 in0.0 mm 0.00 in0.0 mm
01:40 AM 0.9°F-17.3°C -1.1°F-18.4°C 91% 3.5 mph NW5.6 kmh NW 2.3 mph3.7 kmh 31.12 in1053.8 mb - 0.00 in0.0 mm 0.00 in0.0 mm
01:50 AM 0.9°F-17.3°C -1.1°F-18.4°C 91% 2.3 mph SW3.7 kmh SW 2.3 mph3.7 kmh 31.13 in1054.2 mb - 0.00 in0.0 mm 0.00 in0.0 mm
02:00 AM 0.7°F-17.4°C -1.3°F-18.5°C 91% 3.5 mph SW5.6 kmh SW 2.3 mph3.7 kmh 31.13 in1054.2 mb - 0.00 in0.0 mm 0.00 in0.0 mm
02:10 AM 0.7°F-17.4°C -1.3°F-18.5°C 91% 12.7 mph NNE20.4 kmh NNE 12.7 mph20.4 kmh 31.12 in1053.8 mb - 0.00 in0.0 mm 0.00 in0.0 mm
02:20 AM 0.7°F-17.4°C -1.3°F-18.5°C 91% 3.5 mph WSW5.6 kmh WSW 5.8 mph9.3 kmh 31.13 in1054.2 mb - 0.00 in0.0 mm 0.00 in0.0 mm
02:30 AM 0.4°F-17.6°C -1.6°F-18.7°C 91% 2.3 mph WSW3.7 kmh WSW 2.3 mph3.7 kmh 31.13 in1054.2 mb - 0.00 in0.0 mm 0.00 in0.0 mm
02:40 AM 0.1°F-17.7°C -2.0°F-18.9°C 91% 4.6 mph SW7.4 kmh SW 3.5 mph5.6 kmh 31.15 in1054.9 mb - 0.00 in0.0 mm 0.00 in0.0 mm
02:50 AM -0.1°F-17.8°C -2.1°F-18.9°C 91% 3.5 mph WSW5.6 kmh WSW 2.3 mph3.7 kmh 31.15 in1054.9 mb - 0.00 in0.0 mm 0.00 in0.0 mm
03:00 AM -0.4°F-18.0°C -2.4°F-19.1°C 91% 3.5 mph NW5.6 kmh NW 2.3 mph3.7 kmh 31.15 in1054.9 mb - 0.00 in0.0 mm 0.00 in0.0 mm
03:10 AM -0.2°F-17.9°C -2.2°F-19.0°C 91% 4.6 mph SW7.4 kmh SW 2.3 mph3.7 kmh 31.16 in1055.2 mb - 0.00 in0.0 mm 0.00 in0.0 mm
03:20 AM -0.5°F-18.1°C -2.5°F-19.2°C 91% 2.3 mph NW3.7 kmh NW 2.3 mph3.7 kmh 31.16 in1055.2 mb - 0.00 in0.0 mm 0.00 in0.0 mm
03:30 AM -0.7°F-18.2°C -2.7°F-19.3°C 91% 1.2 mph N1.9 kmh N 1.2 mph1.9 kmh 31.16 in1055.2 mb - 0.00 in0.0 mm 0.00 in0.0 mm
03:40 AM -0.9°F-18.3°C -2.9°F-19.4°C 91% 8.1 mph W13.0 kmh W 6.9 mph11.1 kmh 31.16 in1055.2 mb - 0.00 in0.0 mm 0.00 in0.0 mm
03:50 AM -0.7°F-18.2°C -2.7°F-19.3°C 91% 4.6 mph N7.4 kmh N 3.5 mph5.6 kmh 31.16 in1055.2 mb - 0.00 in0.0 mm 0.00 in0.0 mm
04:00 AM -0.9°F-18.3°C -2.9°F-19.4°C 91% 2.3 mph WNW3.7 kmh WNW 2.3 mph3.7 kmh 31.16 in1055.2 mb - 0.00 in0.0 mm 0.00 in0.0 mm
04:10 AM -1.3°F-18.5°C -3.3°F-19.6°C 91% 1.2 mph W1.9 kmh W -- 31.16 in1055.2 mb - 0.00 in0.0 mm 0.00 in0.0 mm
04:20 AM -1.5°F-18.6°C -3.5°F-19.7°C 91% 3.5 mph NW5.6 kmh NW 8.1 mph13.0 kmh 31.15 in1054.9 mb - 0.00 in0.0 mm 0.00 in0.0 mm
04:30 AM -1.5°F-18.6°C -3.5°F-19.7°C 91% 2.3 mph NW3.7 kmh NW 5.8 mph9.3 kmh 31.15 in1054.9 mb - 0.00 in0.0 mm 0.00 in0.0 mm
04:40 AM -1.6°F-18.7°C -3.6°F-19.8°C 91% 2.3 mph NW3.7 kmh NW 1.2 mph1.9 kmh 31.15 in1054.9 mb - 0.00 in0.0 mm 0.00 in0.0 mm
04:50 AM -1.7°F-18.7°C -3.7°F-19.8°C 91% 1.2 mph WNW1.9 kmh WNW 1.2 mph1.9 kmh 31.14 in1054.5 mb - 0.00 in0.0 mm 0.00 in0.0 mm
05:00 AM -1.8°F-18.8°C -3.8°F-19.9°C 91% 2.3 mph W3.7 kmh W 2.3 mph3.7 kmh 31.14 in1054.5 mb - 0.00 in0.0 mm 0.00 in0.0 mm
05:10 AM -2.1°F-18.9°C -4.1°F-20.1°C 91% 1.2 mph WNW1.9 kmh WNW 2.3 mph3.7 kmh 31.14 in1054.5 mb - 0.00 in0.0 mm 0.00 in0.0 mm
05:20 AM -2.1°F-18.9°C -4.1°F-20.1°C 91% 3.5 mph SW5.6 kmh SW 2.3 mph3.7 kmh 31.14 in1054.5 mb - 0.00 in0.0 mm 0.00 in0.0 mm
05:30 AM -2.1°F-18.9°C -4.1°F-20.1°C 91% 3.5 mph WSW5.6 kmh WSW 2.3 mph3.7 kmh 31.14 in1054.5 mb - 0.00 in0.0 mm 0.00 in0.0 mm
05:40 AM -2.1°F-18.9°C -4.1°F-20.1°C 91% 3.5 mph W5.6 kmh W 2.3 mph3.7 kmh 31.14 in1054.5 mb - 0.00 in0.0 mm 0.00 in0.0 mm
05:50 AM -2.1°F-18.9°C -4.1°F-20.1°C 91% 5.8 mph NW9.3 kmh NW 5.8 mph9.3 kmh 31.14 in1054.5 mb - 0.00 in0.0 mm 0.00 in0.0 mm
06:00 AM -2.2°F-19.0°C -4.2°F-20.1°C 91% 1.2 mph ESE1.9 kmh ESE 1.2 mph1.9 kmh 31.14 in1054.5 mb - 0.00 in0.0 mm 0.00 in0.0 mm
06:10 AM -2.3°F-19.1°C -4.3°F-20.2°C 91% 2.3 mph SW3.7 kmh SW 2.3 mph3.7 kmh 31.14 in1054.5 mb - 0.00 in0.0 mm 0.00 in0.0 mm
06:20 AM -2.3°F-19.1°C -4.3°F-20.2°C 91% 2.3 mph WSW3.7 kmh WSW 2.3 mph3.7 kmh 31.15 in1054.9 mb - 0.00 in0.0 mm 0.00 in0.0 mm
06:30 AM -2.3°F-19.1°C -4.3°F-20.2°C 91% 2.3 mph W3.7 kmh W 2.3 mph3.7 kmh 31.15 in1054.9 mb - 0.00 in0.0 mm 0.00 in0.0 mm
06:40 AM -2.5°F-19.2°C -4.5°F-20.3°C 91% 1.2 mph ENE1.9 kmh ENE 2.3 mph3.7 kmh 31.15 in1054.9 mb - 0.00 in0.0 mm 0.00 in0.0 mm
06:50 AM -2.4°F-19.1°C -4.4°F-20.2°C 91% 2.3 mph WSW3.7 kmh WSW 5.8 mph9.3 kmh 31.16 in1055.2 mb - 0.00 in0.0 mm 0.00 in0.0 mm
07:00 AM -2.2°F-19.0°C -4.2°F-20.1°C 91% 5.8 mph SW9.3 kmh SW 8.1 mph13.0 kmh 31.16 in1055.2 mb - 0.00 in0.0 mm 0.00 in0.0 mm
07:10 AM -2.3°F-19.1°C -4.3°F-20.2°C 91% 4.6 mph SW7.4 kmh SW 5.8 mph9.3 kmh 31.16 in1055.2 mb - 0.00 in0.0 mm 0.00 in0.0 mm
07:20 AM -2.1°F-18.9°C -4.1°F-20.1°C 91% 2.3 mph NW3.7 kmh NW 2.3 mph3.7 kmh 31.16 in1055.2 mb - 0.00 in0.0 mm 0.00 in0.0 mm
07:30 AM -2.4°F-19.1°C -4.3°F-20.2°C 91% 3.5 mph WNW5.6 kmh WNW 2.3 mph3.7 kmh 31.16 in1055.2 mb - 0.00 in0.0 mm 0.00 in0.0 mm
07:40 AM -2.4°F-19.1°C -4.4°F-20.2°C 91% 3.5 mph WSW5.6 kmh WSW 5.8 mph9.3 kmh 31.16 in1055.2 mb - 0.00 in0.0 mm 0.00 in0.0 mm
07:50 AM -2.4°F-19.1°C -4.4°F-20.2°C 91% 4.6 mph W7.4 kmh W 3.5 mph5.6 kmh 31.17 in1055.5 mb - 0.00 in0.0 mm 0.00 in0.0 mm
08:00 AM -2.4°F-19.1°C -4.4°F-20.2°C 91% 2.3 mph NW3.7 kmh NW 2.3 mph3.7 kmh 31.17 in1055.5 mb - 0.00 in0.0 mm 0.00 in0.0 mm
08:10 AM -2.5°F-19.2°C -4.5°F-20.3°C 91% 1.2 mph SW1.9 kmh SW 1.2 mph1.9 kmh 31.18 in1055.9 mb - 0.00 in0.0 mm 0.00 in0.0 mm
08:20 AM -2.6°F-19.2°C -4.6°F-20.3°C 91% 1.2 mph NW1.9 kmh NW 1.2 mph1.9 kmh 31.18 in1055.9 mb - 0.00 in0.0 mm 0.00 in0.0 mm
08:30 AM -2.5°F-19.2°C -4.5°F-20.3°C 91% 3.5 mph W5.6 kmh W 2.3 mph3.7 kmh 31.18 in1055.9 mb - 0.00 in0.0 mm 0.00 in0.0 mm
08:40 AM -2.4°F-19.1°C -4.4°F-20.2°C 91% 3.5 mph SW5.6 kmh SW 5.8 mph9.3 kmh 31.18 in1055.9 mb - 0.00 in0.0 mm 0.00 in0.0 mm
08:50 AM -2.3°F-19.1°C -4.3°F-20.2°C 91% 3.5 mph SW5.6 kmh SW 2.3 mph3.7 kmh 31.18 in1055.9 mb - 0.00 in0.0 mm 0.00 in0.0 mm
09:00 AM -2.1°F-18.9°C -4.1°F-20.1°C 91% 4.6 mph WSW7.4 kmh WSW 3.5 mph5.6 kmh 31.17 in1055.5 mb - 0.00 in0.0 mm 0.00 in0.0 mm
09:10 AM -1.7°F-18.7°C -3.7°F-19.8°C 91% 2.3 mph WSW3.7 kmh WSW 2.3 mph3.7 kmh 31.16 in1055.2 mb - 0.00 in0.0 mm 0.00 in0.0 mm
09:20 AM -1.1°F-18.4°C -3.8°F-19.9°C 88% 5.8 mph NW9.3 kmh NW 9.2 mph14.8 kmh 31.14 in1054.5 mb - 0.00 in0.0 mm 0.00 in0.0 mm
09:30 AM -0.9°F-18.3°C -3.8°F-19.9°C 87% 3.5 mph SW5.6 kmh SW 2.3 mph3.7 kmh 31.12 in1053.8 mb - 0.00 in0.0 mm 0.00 in0.0 mm
09:40 AM 0.0°F-17.8°C -3.2°F-19.6°C 86% 2.3 mph WSW3.7 kmh WSW 2.3 mph3.7 kmh 31.09 in1052.8 mb - 0.00 in0.0 mm 0.00 in0.0 mm
09:50 AM 0.3°F-17.6°C -5.2°F-20.7°C 77% Calm Calm -- 31.06 in1051.8 mb - 0.00 in0.0 mm 0.00 in0.0 mm
10:00 AM 0.8°F-17.3°C -8.6°F-22.6°C 64% 5.8 mph WNW9.3 kmh WNW 5.8 mph9.3 kmh 30.45 in1031.2 mb - 0.00 in0.0 mm 0.00 in0.0 mm
10:10 AM 1.5°F-16.9°C -8.2°F-22.3°C 63% 5.8 mph WSW9.3 kmh WSW 5.8 mph9.3 kmh 30.34 in1027.4 mb - 0.00 in0.0 mm 0.00 in0.0 mm
10:20 AM 2.4°F-16.4°C -7.0°F-21.7°C 64% 3.5 mph W5.6 kmh W 2.3 mph3.7 kmh 30.39 in1029.1 mb - 0.00 in0.0 mm 0.00 in0.0 mm
10:30 AM 2.5°F-16.4°C -4.8°F-20.4°C 71% 8.1 mph W13.0 kmh W 6.9 mph11.1 kmh 30.79 in1042.7 mb - 0.00 in0.0 mm 0.00 in0.0 mm
10:40 AM 2.9°F-16.2°C -5.0°F-20.6°C 69% 3.5 mph NW5.6 kmh NW 8.1 mph13.0 kmh 30.78 in1042.3 mb - 0.00 in0.0 mm 0.00 in0.0 mm
10:50 AM 3.6°F-15.8°C -8.3°F-22.4°C 57% 4.6 mph WSW7.4 kmh WSW 5.8 mph9.3 kmh 30.24 in1024.0 mb - 0.00 in0.0 mm 0.00 in0.0 mm
11:00 AM 4.2°F-15.4°C -6.7°F-21.5°C 60% 4.6 mph SW7.4 kmh SW 2.3 mph3.7 kmh 30.38 in1028.8 mb - 0.00 in0.0 mm 0.00 in0.0 mm
11:10 AM 4.6°F-15.2°C -6.6°F-21.4°C 59% 6.9 mph SW11.1 kmh SW 5.8 mph9.3 kmh 30.67 in1038.6 mb - 0.00 in0.0 mm 0.00 in0.0 mm
11:20 AM 5.3°F-14.8°C -7.7°F-22.1°C 54% 6.9 mph WSW11.1 kmh WSW 6.9 mph11.1 kmh 30.19 in1022.4 mb - 0.00 in0.0 mm 0.00 in0.0 mm
11:30 AM 6.0°F-14.4°C -7.1°F-21.7°C 54% 9.2 mph NE14.8 kmh NE 9.2 mph14.8 kmh 30.18 in1022.0 mb - 0.00 in0.0 mm 0.00 in0.0 mm
11:40 AM 6.6°F-14.1°C -7.7°F-22.1°C 51% 6.9 mph WNW11.1 kmh WNW 12.7 mph20.4 kmh 30.18 in1022.0 mb - 0.00 in0.0 mm 0.00 in0.0 mm
11:50 AM 7.5°F-13.6°C -6.9°F-21.6°C 51% 3.5 mph NW5.6 kmh NW 2.3 mph3.7 kmh 30.18 in1022.0 mb - 0.00 in0.0 mm 0.00 in0.0 mm
12:00 PM 8.2°F-13.2°C -6.7°F-21.5°C 50% 6.9 mph N11.1 kmh N 9.2 mph14.8 kmh 30.18 in1022.0 mb - 0.00 in0.0 mm 0.00 in0.0 mm
12:10 PM 8.4°F-13.1°C -6.9°F-21.6°C 49% 3.5 mph NNW5.6 kmh NNW 2.3 mph3.7 kmh 30.17 in1021.7 mb - 0.00 in0.0 mm 0.00 in0.0 mm
12:20 PM 8.9°F-12.8°C -6.4°F-21.3°C 49% 1.2 mph N1.9 kmh N 2.3 mph3.7 kmh 30.17 in1021.7 mb - 0.00 in0.0 mm 0.00 in0.0 mm
12:30 PM 9.4°F-12.6°C -6.0°F-21.1°C 49% 3.5 mph W5.6 kmh W 2.3 mph3.7 kmh 30.17 in1021.7 mb - 0.00 in0.0 mm 0.00 in0.0 mm
12:40 PM 10.0°F-12.2°C -5.4°F-20.8°C 49% 3.5 mph NNW5.6 kmh NNW 5.8 mph9.3 kmh 30.17 in1021.7 mb - 0.00 in0.0 mm 0.00 in0.0 mm
12:50 PM 9.9°F-12.3°C -5.5°F-20.8°C 49% 4.6 mph W7.4 kmh W 3.5 mph5.6 kmh 30.16 in1021.3 mb - 0.00 in0.0 mm 0.00 in0.0 mm
01:00 PM 9.9°F-12.3°C -5.9°F-21.1°C 48% 8.1 mph WSW13.0 kmh WSW 8.1 mph13.0 kmh 30.16 in1021.3 mb - 0.00 in0.0 mm 0.00 in0.0 mm
01:10 PM 10.5°F-11.9°C -5.4°F-20.8°C 48% 5.8 mph NW9.3 kmh NW 6.9 mph11.1 kmh 30.15 in1021.0 mb - 0.00 in0.0 mm 0.00 in0.0 mm
01:20 PM 10.9°F-11.7°C -5.0°F-20.6°C 48% 10.4 mph NW16.7 kmh NW 10.4 mph16.7 kmh 30.14 in1020.7 mb - 0.00 in0.0 mm 0.00 in0.0 mm
01:30 PM 11.3°F-11.5°C -5.1°F-20.6°C 47% 10.4 mph NW16.7 kmh NW 9.2 mph14.8 kmh 30.14 in1020.7 mb - 0.00 in0.0 mm 0.00 in0.0 mm
01:40 PM 11.5°F-11.4°C -4.9°F-20.5°C 47% 9.2 mph N14.8 kmh N 6.9 mph11.1 kmh 30.17 in1021.7 mb - 0.00 in0.0 mm 0.00 in0.0 mm
01:50 PM 11.2°F-11.6°C -5.6°F-20.9°C 46% 5.8 mph W9.3 kmh W 8.1 mph13.0 kmh 30.24 in1024.0 mb - 0.00 in0.0 mm 0.00 in0.0 mm
02:00 PM 11.4°F-11.4°C -5.4°F-20.8°C 46% 2.3 mph SW3.7 kmh SW 1.2 mph1.9 kmh 30.25 in1024.4 mb - 0.00 in0.0 mm 0.00 in0.0 mm
02:10 PM 11.5°F-11.4°C -5.3°F-20.7°C 46% 8.1 mph NW13.0 kmh NW 8.1 mph13.0 kmh 30.27 in1025.1 mb - 0.00 in0.0 mm 0.00 in0.0 mm
02:20 PM 11.7°F-11.3°C -4.7°F-20.4°C 47% 4.6 mph WSW7.4 kmh WSW 2.3 mph3.7 kmh 30.28 in1025.4 mb - 0.00 in0.0 mm 0.00 in0.0 mm
02:30 PM 12.1°F-11.1°C -3.8°F-19.9°C 48% 2.3 mph WSW3.7 kmh WSW 2.3 mph3.7 kmh 30.29 in1025.7 mb - 0.00 in0.0 mm 0.00 in0.0 mm
02:40 PM 12.3°F-10.9°C -3.7°F-19.8°C 48% 10.4 mph WNW16.7 kmh WNW 10.4 mph16.7 kmh 30.31 in1026.4 mb - 0.00 in0.0 mm 0.00 in0.0 mm
02:50 PM 11.8°F-11.2°C -3.7°F-19.8°C 49% 9.2 mph SW14.8 kmh SW 8.1 mph13.0 kmh 30.37 in1028.4 mb - 0.00 in0.0 mm 0.00 in0.0 mm
03:00 PM 11.9°F-11.2°C -1.6°F-18.7°C 54% 5.8 mph WNW9.3 kmh WNW 10.4 mph16.7 kmh 30.58 in1035.6 mb - 0.00 in0.0 mm 0.00 in0.0 mm
03:10 PM 11.6°F-11.3°C -1.5°F-18.6°C 55% 3.5 mph WSW5.6 kmh WSW 5.8 mph9.3 kmh 30.65 in1037.9 mb - 0.00 in0.0 mm 0.00 in0.0 mm
03:20 PM 11.2°F-11.6°C -1.8°F-18.8°C 55% 4.6 mph N7.4 kmh N 3.5 mph5.6 kmh 30.67 in1038.6 mb - 0.00 in0.0 mm 0.00 in0.0 mm
03:30 PM 11.1°F-11.6°C -1.9°F-18.8°C 55% 3.5 mph W5.6 kmh W 2.3 mph3.7 kmh 30.69 in1039.3 mb - 0.00 in0.0 mm 0.00 in0.0 mm
03:40 PM 10.9°F-11.7°C -1.7°F-18.7°C 56% 1.2 mph WSW1.9 kmh WSW 1.2 mph1.9 kmh 30.70 in1039.6 mb - 0.00 in0.0 mm 0.00 in0.0 mm
03:50 PM 10.9°F-11.7°C -2.1°F-18.9°C 55% 5.8 mph W9.3 kmh W 5.8 mph9.3 kmh 30.72 in1040.3 mb - 0.00 in0.0 mm 0.00 in0.0 mm
04:00 PM 10.8°F-11.8°C -2.6°F-19.2°C 54% 2.3 mph WSW3.7 kmh WSW 2.3 mph3.7 kmh 30.73 in1040.6 mb - 0.00 in0.0 mm 0.00 in0.0 mm
04:10 PM 10.8°F-11.8°C -1.8°F-18.8°C 56% 2.3 mph W3.7 kmh W 2.3 mph3.7 kmh 30.74 in1041.0 mb - 0.00 in0.0 mm 0.00 in0.0 mm
04:20 PM 10.9°F-11.7°C -1.8°F-18.8°C 56% 10.4 mph NW16.7 kmh NW 9.2 mph14.8 kmh 30.74 in1041.0 mb - 0.00 in0.0 mm 0.00 in0.0 mm
04:30 PM 10.6°F-11.9°C -2.4°F-19.1°C 55% 8.1 mph WSW13.0 kmh WSW 8.1 mph13.0 kmh 30.75 in1041.3 mb - 0.00 in0.0 mm 0.00 in0.0 mm
04:40 PM 10.4°F-12.0°C -2.2°F-19.0°C 56% 5.8 mph WSW9.3 kmh WSW 5.8 mph9.3 kmh 30.76 in1041.7 mb - 0.00 in0.0 mm 0.00 in0.0 mm
04:50 PM 10.2°F-12.1°C -2.0°F-18.9°C 57% 4.6 mph NW7.4 kmh NW 3.5 mph5.6 kmh 30.79 in1042.7 mb - 0.00 in0.0 mm 0.00 in0.0 mm
05:00 PM 10.1°F-12.2°C -2.5°F-19.2°C 56% 6.9 mph WSW11.1 kmh WSW 5.8 mph9.3 kmh 30.80 in1043.0 mb - 0.00 in0.0 mm 0.00 in0.0 mm
05:10 PM 9.9°F-12.3°C -2.7°F-19.3°C 56% 5.8 mph WNW9.3 kmh WNW 5.8 mph9.3 kmh 30.82 in1043.7 mb - 0.00 in0.0 mm 0.00 in0.0 mm
05:20 PM 9.4°F-12.6°C -2.5°F-19.2°C 58% 8.1 mph NW13.0 kmh NW 8.1 mph13.0 kmh 30.84 in1044.4 mb - 0.00 in0.0 mm 0.00 in0.0 mm
05:30 PM 8.9°F-12.8°C -2.5°F-19.2°C 59% 6.9 mph NW11.1 kmh NW 5.8 mph9.3 kmh 30.86 in1045.0 mb - 0.00 in0.0 mm 0.00 in0.0 mm
05:40 PM 8.5°F-13.1°C -2.2°F-19.0°C 61% 5.8 mph WSW9.3 kmh WSW 5.8 mph9.3 kmh 30.88 in1045.7 mb - 0.00 in0.0 mm 0.00 in0.0 mm
05:50 PM 8.4°F-13.1°C -2.6°F-19.2°C 60% 4.6 mph SSW7.4 kmh SSW 6.9 mph11.1 kmh 30.90 in1046.4 mb - 0.00 in0.0 mm 0.00 in0.0 mm
06:00 PM 8.2°F-13.2°C -2.5°F-19.2°C 61% 4.6 mph WNW7.4 kmh WNW 3.5 mph5.6 kmh 30.92 in1047.1 mb - 0.00 in0.0 mm 0.00 in0.0 mm
06:10 PM 7.9°F-13.4°C -2.8°F-19.3°C 61% 2.3 mph WSW3.7 kmh WSW 2.3 mph3.7 kmh 30.94 in1047.7 mb - 0.00 in0.0 mm 0.00 in0.0 mm
06:20 PM 7.9°F-13.4°C -2.8°F-19.3°C 61% 10.4 mph WNW16.7 kmh WNW 10.4 mph16.7 kmh 30.96 in1048.4 mb - 0.00 in0.0 mm 0.00 in0.0 mm
06:30 PM 7.5°F-13.6°C -2.5°F-19.2°C 63% Calm Calm 3.5 mph5.6 kmh 30.98 in1049.1 mb - 0.00 in0.0 mm 0.00 in0.0 mm
06:40 PM 7.2°F-13.8°C -2.1°F-18.9°C 65% 2.3 mph W3.7 kmh W 2.3 mph3.7 kmh 30.99 in1049.4 mb - 0.00 in0.0 mm 0.00 in0.0 mm
06:50 PM 6.9°F-13.9°C -2.4°F-19.1°C 65% 5.8 mph WNW9.3 kmh WNW 5.8 mph9.3 kmh 31.01 in1050.1 mb - 0.00 in0.0 mm 0.00 in0.0 mm
07:00 PM 6.6°F-14.1°C -2.0°F-18.9°C 67% 3.5 mph WSW5.6 kmh WSW 2.3 mph3.7 kmh 31.02 in1050.5 mb - 0.00 in0.0 mm 0.00 in0.0 mm
07:10 PM 6.1°F-14.4°C -1.6°F-18.7°C 70% 3.5 mph WNW5.6 kmh WNW 2.3 mph3.7 kmh 31.04 in1051.1 mb - 0.00 in0.0 mm 0.00 in0.0 mm
07:20 PM 5.1°F-14.9°C -1.7°F-18.7°C 73% 1.2 mph W1.9 kmh W -- 31.06 in1051.8 mb - 0.00 in0.0 mm 0.00 in0.0 mm
07:30 PM 3.8°F-15.7°C -2.1°F-18.9°C 76% Calm Calm -- 31.07 in1052.2 mb - 0.00 in0.0 mm 0.00 in0.0 mm
07:40 PM 2.4°F-16.4°C -1.9°F-18.8°C 82% 1.2 mph W1.9 kmh W 1.2 mph1.9 kmh 31.08 in1052.5 mb - 0.00 in0.0 mm 0.00 in0.0 mm
07:50 PM 1.6°F-16.9°C -1.9°F-18.8°C 85% Calm Calm -- 31.09 in1052.8 mb - 0.00 in0.0 mm 0.00 in0.0 mm
08:00 PM 0.7°F-17.4°C -2.3°F-19.1°C 87% Calm Calm -- 31.09 in1052.8 mb - 0.00 in0.0 mm 0.00 in0.0 mm
08:10 PM 0.1°F-17.7°C -1.9°F-18.8°C 91% Calm Calm -- 31.11 in1053.5 mb - 0.00 in0.0 mm 0.00 in0.0 mm
08:20 PM -0.7°F-18.2°C -2.7°F-19.3°C 91% Calm Calm -- 31.12 in1053.8 mb - 0.00 in0.0 mm 0.00 in0.0 mm
08:30 PM -1.3°F-18.5°C -3.3°F-19.6°C 91% Calm Calm -- 31.12 in1053.8 mb - 0.00 in0.0 mm 0.00 in0.0 mm
08:40 PM -1.9°F-18.8°C -3.9°F-19.9°C 91% Calm Calm -- 31.13 in1054.2 mb - 0.00 in0.0 mm 0.00 in0.0 mm
08:50 PM -2.4°F-19.1°C -4.4°F-20.2°C 91% Calm Calm -- 31.14 in1054.5 mb - 0.00 in0.0 mm 0.00 in0.0 mm
09:00 PM -2.6°F-19.2°C -4.6°F-20.3°C 91% Calm Calm -- 31.14 in1054.5 mb - 0.00 in0.0 mm 0.00 in0.0 mm
09:10 PM -2.5°F-19.2°C -4.5°F-20.3°C 91% Calm Calm -- 31.14 in1054.5 mb - 0.00 in0.0 mm 0.00 in0.0 mm
09:20 PM -2.9°F-19.4°C -4.9°F-20.5°C 91% Calm Calm -- 31.15 in1054.9 mb - 0.00 in0.0 mm 0.00 in0.0 mm
09:30 PM -3.3°F-19.6°C -5.3°F-20.7°C 91% Calm Calm -- 31.16 in1055.2 mb - 0.00 in0.0 mm 0.00 in0.0 mm
09:40 PM -3.4°F-19.7°C -5.4°F-20.8°C 91% Calm Calm -- 31.16 in1055.2 mb - 0.00 in0.0 mm 0.00 in0.0 mm
09:50 PM -3.5°F-19.7°C -5.5°F-20.8°C 91% Calm Calm -- 31.16 in1055.2 mb - 0.00 in0.0 mm 0.00 in0.0 mm
10:00 PM -3.4°F-19.7°C -5.4°F-20.8°C 91% Calm Calm -- 31.17 in1055.5 mb - 0.00 in0.0 mm 0.00 in0.0 mm
10:10 PM -3.5°F-19.7°C -5.5°F-20.8°C 91% Calm Calm -- 31.17 in1055.5 mb - 0.00 in0.0 mm 0.00 in0.0 mm
10:20 PM -3.5°F-19.7°C -5.5°F-20.8°C 91% Calm Calm -- 31.18 in1055.9 mb - 0.00 in0.0 mm 0.00 in0.0 mm
10:30 PM -3.8°F-19.9°C -5.8°F-21.0°C 91% Calm Calm -- 31.18 in1055.9 mb - 0.00 in0.0 mm 0.00 in0.0 mm
10:40 PM -4.2°F-20.1°C -5.9°F-21.1°C 92% 1.2 mph W1.9 kmh W 1.2 mph1.9 kmh 31.18 in1055.9 mb - 0.00 in0.0 mm 0.00 in0.0 mm
10:50 PM -4.4°F-20.2°C -6.1°F-21.2°C 92% Calm Calm -- 31.18 in1055.9 mb - 0.00 in0.0 mm 0.00 in0.0 mm
11:00 PM -4.1°F-20.1°C -5.8°F-21.0°C 92% Calm Calm -- 31.19 in1056.2 mb - 0.00 in0.0 mm 0.00 in0.0 mm
11:10 PM -3.6°F-19.8°C -5.6°F-20.9°C 91% Calm Calm -- 31.19 in1056.2 mb - 0.00 in0.0 mm 0.00 in0.0 mm
11:20 PM -2.9°F-19.4°C -4.9°F-20.5°C 91% Calm Calm -- 31.19 in1056.2 mb - 0.00 in0.0 mm 0.00 in0.0 mm
11:30 PM -2.6°F-19.2°C -4.6°F-20.3°C 91% 1.2 mph W1.9 kmh W 1.2 mph1.9 kmh 31.19 in1056.2 mb - 0.00 in0.0 mm 0.00 in0.0 mm
11:40 PM -1.6°F-18.7°C -3.6°F-19.8°C 91% Calm Calm -- 31.19 in1056.2 mb - 0.00 in0.0 mm 0.00 in0.0 mm
11:50 PM -1.5°F-18.6°C -3.5°F-19.7°C 91% Calm Calm -- 31.19 in1056.2 mb - 0.00 in0.0 mm 0.00 in0.0 mm